Sancti Spiritus, Cuba
Current Conditions -  °F | °C
As of 10:50 PM on Saturday 22 Nov 2014 (Local Time) from MUSC Reporting Station
Few Clouds Few Clouds  
Wind Chill: 75°   Ceiling: Unl
Heat Index: 75°   Visibility: 6mi
Dew Point: 70°   Wind: 9mph
Humidity: 83%   Direction: 90°E
Pressure: 30.06"   Gusts: NA
Location:  21.93°N, 79.44°W
Report Text: MUSC 230250Z 09008KT 9000 FEW025 24/21 Q1018
Loading
Personal Weather Stations






























Interactive Weather Map New forecast layout! Learn more

10-Day Weather Forecast

Advertisements
Track Severe Weather on mobile